createdAt,value
2018-02-20T00:02:18.097Z,23.77
2018-02-20T00:04:46.943Z,22.47
2018-02-20T00:07:12.788Z,24.87
2018-02-20T00:09:42.307Z,23.50
2018-02-20T00:12:08.168Z,25.35
2018-02-20T00:14:37.163Z,24.40
2018-02-20T00:17:03.016Z,24.12
2018-02-20T00:19:32.165Z,21.77
2018-02-20T00:21:58.028Z,24.63
2018-02-20T00:24:27.198Z,22.50
2018-02-20T00:26:53.033Z,23.75
2018-02-20T00:29:18.905Z,23.47
2018-02-20T00:31:44.756Z,25.23
2018-02-20T00:34:10.597Z,21.50
2018-02-20T00:36:37.995Z,23.33
2018-02-20T00:39:03.865Z,23.95
2018-02-20T00:41:32.964Z,26.13
2018-02-20T00:43:58.830Z,23.62
2018-02-20T00:46:28.227Z,26.00
2018-02-20T00:48:54.113Z,23.60
2018-02-20T00:51:23.302Z,23.53
2018-02-20T00:53:49.144Z,22.98
2018-02-20T00:56:16.678Z,25.13
2018-02-20T00:58:42.539Z,24.45
2018-02-20T01:01:12.170Z,25.40
2018-02-20T01:03:38.044Z,22.42
2018-02-20T01:06:03.899Z,23.30
2018-02-20T01:08:29.742Z,23.40
2018-02-20T01:10:55.649Z,24.30
2018-02-20T01:13:23.454Z,22.87
2018-02-20T01:15:49.276Z,24.67
2018-02-20T01:18:18.999Z,24.83
2018-02-20T01:20:44.858Z,23.80
2018-02-20T01:23:13.955Z,24.77
2018-02-20T01:25:39.859Z,21.58
2018-02-20T01:28:07.164Z,25.03
2018-02-20T01:30:33.010Z,23.48
2018-02-20T01:33:01.754Z,22.73
2018-02-20T01:35:31.438Z,24.60
2018-02-20T01:37:57.327Z,25.60
2018-02-20T01:40:23.192Z,23.93
2018-02-20T01:42:49.033Z,20.90
2018-02-20T01:45:15.225Z,21.77
2018-02-20T01:47:41.053Z,23.83
2018-02-20T01:50:08.446Z,24.33
2018-02-20T01:52:34.310Z,23.05
2018-02-20T01:55:03.653Z,24.43
2018-02-20T01:57:29.526Z,22.90
2018-02-20T01:59:59.119Z,24.83
2018-02-20T02:02:24.961Z,25.48
2018-02-20T02:04:52.627Z,23.63
2018-02-20T02:07:18.515Z,25.92
2018-02-20T02:09:47.382Z,24.70
2018-02-20T02:12:13.210Z,25.77
2018-02-20T02:14:41.945Z,23.87
2018-02-20T02:17:07.834Z,27.65
2018-02-20T02:19:33.676Z,24.93
2018-02-20T02:21:59.651Z,27.53
2018-02-20T02:24:25.506Z,23.90
2018-02-20T02:26:54.490Z,26.40
2018-02-20T02:29:20.328Z,26.73
2018-02-20T02:31:49.669Z,26.63
2018-02-20T02:34:15.499Z,26.30
2018-02-20T02:36:42.896Z,25.97
2018-02-20T02:39:08.734Z,26.50
2018-02-20T02:41:36.884Z,26.57
2018-02-20T02:44:02.746Z,26.67
2018-02-20T02:46:28.602Z,27.20
2018-02-20T02:48:54.504Z,25.17
2018-02-20T02:51:20.380Z,26.87
2018-02-20T02:53:48.998Z,28.40
2018-02-20T02:56:14.859Z,24.45
2018-02-20T02:58:44.669Z,28.77
2018-02-20T03:01:10.512Z,25.58
2018-02-20T03:03:40.166Z,26.60
2018-02-20T03:06:06.056Z,27.48
2018-02-20T03:08:33.365Z,27.90
2018-02-20T03:10:59.224Z,27.62
2018-02-20T03:15:56.015Z,28.50
2018-02-20T03:18:23.221Z,26.00
2018-02-20T03:20:49.063Z,26.65
2018-02-20T03:23:17.499Z,26.93
2018-02-20T03:25:43.361Z,27.20
2018-02-20T03:30:40.255Z,29.30
2018-02-20T03:33:06.146Z,26.90
2018-02-20T03:35:32.028Z,27.47
2018-02-20T03:37:57.870Z,31.20
2018-02-20T03:40:24.381Z,28.67
2018-02-20T03:42:50.267Z,27.52
2018-02-20T03:45:19.134Z,29.33
2018-02-20T03:47:45.116Z,27.55
2018-02-20T03:50:14.103Z,27.75
2018-02-20T03:52:39.954Z,26.75
2018-02-20T03:55:09.474Z,27.20
2018-02-20T03:57:35.358Z,26.20
2018-02-20T04:00:04.518Z,29.40
2018-02-20T04:02:30.358Z,27.92
2018-02-20T04:04:57.828Z,29.30
2018-02-20T04:07:23.669Z,26.35
2018-02-20T04:09:49.558Z,26.33
2018-02-20T04:12:15.398Z,28.30
2018-02-20T04:14:41.258Z,28.93
2018-02-20T04:17:10.854Z,30.20
2018-02-20T04:19:36.706Z,28.12
2018-02-20T04:22:06.169Z,28.60
2018-02-20T04:24:32.014Z,28.33
2018-02-20T04:26:59.332Z,29.07
2018-02-20T04:29:25.182Z,29.45
2018-02-20T04:31:54.721Z,28.93
2018-02-20T04:34:20.561Z,29.63
2018-02-20T04:36:49.842Z,29.13
2018-02-20T04:39:15.685Z,27.45
2018-02-20T04:41:43.098Z,28.23
2018-02-20T04:44:08.933Z,29.33
2018-02-20T04:46:34.797Z,26.07
2018-02-20T04:49:00.675Z,29.70
2018-02-20T04:51:26.517Z,26.40
2018-02-20T04:53:55.797Z,27.80
2018-02-20T04:56:21.664Z,26.73
2018-02-20T04:58:51.153Z,27.67
2018-02-20T05:01:17.015Z,25.30
2018-02-20T05:03:44.618Z,25.43
2018-02-20T05:06:10.478Z,27.75
2018-02-20T05:08:39.949Z,28.10
2018-02-20T05:11:05.797Z,27.65
2018-02-20T05:13:33.553Z,25.83
2018-02-20T05:15:59.407Z,26.92
2018-02-20T05:20:56.142Z,24.42
2018-02-20T05:23:22.079Z,24.70
2018-02-20T05:25:47.927Z,26.57
2018-02-20T05:28:13.777Z,22.73
2018-02-20T05:30:40.661Z,24.58
2018-02-20T05:33:06.494Z,23.27
2018-02-20T05:35:36.292Z,22.53
2018-02-20T05:38:02.165Z,24.60
2018-02-20T05:40:29.809Z,22.60
2018-02-20T05:42:55.654Z,22.70
2018-02-20T05:45:25.314Z,24.57
2018-02-20T05:47:51.174Z,25.20
2018-02-20T05:50:20.273Z,24.77
2018-02-20T05:52:46.130Z,23.73
2018-02-20T05:55:15.396Z,25.70
2018-02-20T05:57:41.232Z,22.70
2018-02-20T06:00:07.117Z,21.87
2018-02-20T06:02:33.004Z,25.10
2018-02-20T06:04:58.865Z,25.60
2018-02-20T06:07:25.196Z,23.00
2018-02-20T06:09:51.829Z,25.83
2018-02-20T06:12:21.393Z,26.15
2018-02-20T06:14:47.239Z,25.98
2018-02-20T06:17:16.638Z,26.50
2018-02-20T06:19:42.495Z,25.70
2018-02-20T06:22:10.082Z,25.77
2018-02-20T06:24:35.930Z,26.67
2018-02-20T06:27:05.204Z,25.37
2018-02-20T06:29:31.053Z,24.75
2018-02-20T06:32:00.532Z,27.13
2018-02-20T06:34:26.384Z,28.02
2018-02-20T06:36:52.224Z,26.30
2018-02-20T06:39:18.085Z,29.07
2018-02-20T06:41:43.949Z,28.57
2018-02-20T06:44:10.549Z,24.37
2018-02-20T06:46:36.399Z,28.42
2018-02-20T06:49:05.235Z,27.37
2018-02-20T06:51:31.068Z,25.77
2018-02-20T06:53:59.681Z,28.77
2018-02-20T06:56:25.577Z,26.10
2018-02-20T07:01:22.335Z,26.95
2018-02-20T07:03:50.225Z,28.50
2018-02-20T07:06:16.071Z,27.05
2018-02-20T07:08:45.439Z,27.63
2018-02-20T07:11:11.279Z,28.23
2018-02-20T07:13:37.115Z,26.27
2018-02-20T07:16:03.001Z,28.57
2018-02-20T07:18:28.843Z,26.60
2018-02-20T07:20:56.643Z,27.03
2018-02-20T07:23:22.507Z,28.38
2018-02-20T07:25:52.113Z,25.77
2018-02-20T07:28:17.984Z,25.50
2018-02-20T07:31:00.397Z,24.63
2018-02-20T07:33:26.248Z,21.60
2018-02-20T07:35:52.068Z,22.23
2018-02-20T07:38:17.943Z,21.23
2018-02-20T07:40:43.798Z,21.73
2018-02-20T07:43:09.654Z,24.40
2018-02-20T07:45:35.531Z,24.30
2018-02-20T07:48:01.388Z,22.43
2018-02-20T07:50:27.243Z,24.20
2018-02-20T07:52:53.110Z,23.47
2018-02-20T07:55:18.945Z,20.00
2018-02-20T07:57:44.802Z,21.27
2018-02-20T08:00:10.633Z,19.50
2018-02-20T08:02:36.563Z,17.67
2018-02-20T08:05:02.439Z,18.93
2018-02-20T08:07:31.340Z,17.33
2018-02-20T08:09:57.205Z,16.20
2018-02-20T08:12:26.853Z,16.70
2018-02-20T08:14:52.717Z,17.25
2018-02-20T08:17:20.492Z,16.70
2018-02-20T08:19:46.362Z,17.05
2018-02-20T08:22:15.651Z,14.93
2018-02-20T08:24:41.534Z,15.68
2018-02-20T08:27:07.437Z,15.57
2018-02-20T08:29:33.265Z,18.53
2018-02-20T08:31:59.129Z,18.67
2018-02-20T08:34:26.890Z,18.43
2018-02-20T08:36:52.785Z,19.73
2018-02-20T08:39:22.378Z,19.77
2018-02-20T08:41:48.275Z,17.50
2018-02-20T08:44:17.747Z,15.50
2018-02-20T08:46:43.629Z,16.02
2018-02-20T08:49:11.261Z,14.73
2018-02-20T08:51:37.087Z,15.35
2018-02-20T08:54:06.186Z,14.70
2018-02-20T08:56:32.054Z,14.50
2018-02-20T08:59:01.132Z,14.37
2018-02-20T09:01:27.034Z,14.13
2018-02-20T09:03:52.886Z,14.00
2018-02-20T09:06:18.757Z,14.13
2018-02-20T09:08:44.583Z,15.40
2018-02-20T09:11:12.386Z,14.57
2018-02-20T09:13:38.247Z,17.10
2018-02-20T09:16:07.686Z,15.27
2018-02-20T09:18:33.544Z,15.00
2018-02-20T09:21:02.915Z,13.30
2018-02-20T09:23:28.766Z,15.68
2018-02-20T09:25:57.802Z,16.17
2018-02-20T09:28:23.623Z,14.35
2018-02-20T09:30:50.771Z,14.43
2018-02-20T09:33:16.631Z,13.30
2018-02-20T09:35:45.534Z,15.00
2018-02-20T09:38:11.408Z,15.70
2018-02-20T09:40:37.311Z,14.77
2018-02-20T09:43:03.152Z,14.87
2018-02-20T09:45:29.044Z,14.10
2018-02-20T09:47:58.829Z,15.40
2018-02-20T09:50:24.703Z,16.85
2018-02-20T09:52:52.194Z,15.60
2018-02-20T10:01:03.812Z,12.32
2018-02-20T10:03:29.665Z,12.77
2018-02-20T10:05:55.530Z,12.80
2018-02-20T10:08:21.380Z,13.50
2018-02-20T10:10:47.256Z,14.03
2018-02-20T10:13:13.092Z,13.67
2018-02-20T10:15:38.958Z,12.30
2018-02-20T10:18:04.811Z,12.90
2018-02-20T10:20:30.655Z,11.97
2018-02-20T10:22:56.480Z,13.93
2018-02-20T10:25:22.328Z,11.63
2018-02-20T10:27:48.174Z,13.23
2018-02-20T10:30:14.052Z,12.73
2018-02-20T10:32:39.926Z,12.13
2018-02-20T10:35:05.781Z,12.47
2018-02-20T10:37:31.656Z,10.47
2018-02-20T10:39:57.488Z,12.00
2018-02-20T10:42:23.371Z,12.60
2018-02-20T10:44:49.236Z,13.50
2018-02-20T10:47:15.094Z,12.27
2018-02-20T10:49:40.916Z,12.90
2018-02-20T10:52:06.755Z,14.00
2018-02-20T10:54:32.630Z,12.30
2018-02-20T10:56:58.458Z,13.40
2018-02-20T10:59:24.302Z,13.67
2018-02-20T11:01:50.184Z,14.50
2018-02-20T11:04:16.085Z,14.90
2018-02-20T11:06:41.944Z,15.43
2018-02-20T11:09:07.837Z,17.43
2018-02-20T11:11:33.706Z,15.70
2018-02-20T11:13:59.572Z,15.43
2018-02-20T11:16:25.417Z,16.40
2018-02-20T11:18:51.256Z,14.50
2018-02-20T11:21:17.114Z,13.83
2018-02-20T11:23:42.969Z,13.10
2018-02-20T11:26:08.821Z,14.40
2018-02-20T11:28:34.674Z,15.10
2018-02-20T11:31:00.522Z,15.17
2018-02-20T11:33:26.396Z,15.40
2018-02-20T11:35:52.234Z,15.00
2018-02-20T11:38:18.082Z,15.50
2018-02-20T11:40:43.928Z,13.43
2018-02-20T11:43:09.783Z,15.30
2018-02-20T11:45:35.653Z,15.80
2018-02-20T11:48:02.480Z,16.97
2018-02-20T11:50:28.337Z,17.10
2018-02-20T11:52:57.759Z,17.63
2018-02-20T11:55:23.610Z,18.58
2018-02-20T11:57:53.018Z,15.07
2018-02-20T12:00:18.915Z,17.05
2018-02-20T12:02:47.922Z,17.10
2018-02-20T12:05:13.764Z,18.55
2018-02-20T12:07:39.636Z,18.30
2018-02-20T12:10:05.499Z,17.00
2018-02-20T12:12:31.375Z,15.53
2018-02-20T12:14:58.653Z,15.50
2018-02-20T12:17:24.511Z,16.25
2018-02-20T12:19:53.146Z,16.73
2018-02-20T12:22:19.038Z,16.10
2018-02-20T12:24:47.990Z,17.60
2018-02-20T12:27:13.830Z,17.37
2018-02-20T12:29:42.980Z,16.07
2018-02-20T12:32:08.824Z,16.55
2018-02-20T12:34:38.707Z,14.73
2018-02-20T12:37:04.552Z,15.23
2018-02-20T12:39:33.558Z,14.90
2018-02-20T12:41:59.404Z,16.17
2018-02-20T12:44:25.259Z,15.60
2018-02-20T12:46:51.125Z,14.80
2018-02-20T12:49:16.970Z,14.73
2018-02-20T12:51:44.158Z,15.90
2018-02-20T12:54:10.001Z,15.32
2018-02-20T12:56:39.165Z,14.93
2018-02-20T12:59:05.045Z,15.88
2018-02-20T13:01:34.132Z,16.37
2018-02-20T13:04:00.021Z,15.25
2018-02-20T13:06:29.111Z,14.33
2018-02-20T13:08:54.978Z,14.57
2018-02-20T13:11:24.239Z,13.23
2018-02-20T13:13:50.060Z,14.68
2018-02-20T13:16:17.485Z,34.00
2018-02-20T13:18:43.336Z,22.65
2018-02-20T13:21:09.219Z,14.73
2018-02-20T13:23:35.079Z,14.90
2018-02-20T13:26:00.934Z,14.50
2018-02-20T13:28:30.756Z,14.40
2018-02-20T13:30:56.641Z,15.82
2018-02-20T13:33:24.256Z,15.40
2018-02-20T13:35:50.117Z,13.95
2018-02-20T13:38:19.926Z,14.90
2018-02-20T13:40:45.781Z,12.82
2018-02-20T13:43:13.263Z,14.03
2018-02-20T13:45:39.145Z,14.95
2018-02-20T13:48:08.592Z,15.03
2018-02-20T13:50:34.457Z,15.35
2018-02-20T13:53:03.493Z,16.30
2018-02-20T13:55:29.334Z,15.07
2018-02-20T13:57:55.215Z,16.23
2018-02-20T14:00:21.054Z,15.67
2018-02-20T14:02:46.922Z,15.30
2018-02-20T14:05:15.956Z,14.63
2018-02-20T14:07:41.852Z,17.27
2018-02-20T14:10:08.827Z,15.30
2018-02-20T14:12:34.697Z,18.35
2018-02-20T14:15:03.330Z,15.77
2018-02-20T14:17:29.187Z,16.25
2018-02-20T14:22:26.035Z,15.73
2018-02-20T14:24:53.199Z,15.80
2018-02-20T14:27:19.036Z,14.68
2018-02-20T14:29:47.903Z,16.60
2018-02-20T14:32:13.748Z,18.35
2018-02-20T14:34:39.637Z,20.10
2018-02-20T14:37:05.516Z,19.83
2018-02-20T14:39:31.359Z,18.33
2018-02-20T14:42:00.680Z,23.97
2018-02-20T14:44:26.542Z,19.95
2018-02-20T14:46:56.164Z,17.00
2018-02-20T14:49:21.993Z,17.30
2018-02-20T14:51:49.681Z,16.93
2018-02-20T14:54:15.556Z,16.17
2018-02-20T14:56:44.838Z,15.67
2018-02-20T14:59:10.723Z,17.17
2018-02-20T15:01:40.225Z,17.73
2018-02-20T15:04:06.119Z,17.35
2018-02-20T15:06:33.914Z,18.00
2018-02-20T15:08:59.756Z,18.05
2018-02-20T15:11:25.623Z,19.40
2018-02-20T15:13:51.461Z,18.30
2018-02-20T15:16:17.368Z,17.60
2018-02-20T15:18:46.322Z,28.40
2018-02-20T15:21:12.174Z,29.95
2018-02-20T15:23:41.249Z,26.00
2018-02-20T15:26:08.102Z,18.83
2018-02-20T15:28:34.413Z,20.60
2018-02-20T15:31:00.291Z,18.92
2018-02-20T15:33:29.121Z,20.83
2018-02-20T15:35:55.003Z,19.45
2018-02-20T15:38:23.890Z,21.40
2018-02-20T15:40:49.723Z,23.50
2018-02-20T15:43:18.628Z,21.50
2018-02-20T15:45:44.483Z,21.85
2018-02-20T15:48:10.356Z,21.47
2018-02-20T15:50:36.187Z,20.60
2018-02-20T15:53:02.037Z,21.33
2018-02-20T15:55:31.306Z,19.73
2018-02-20T15:57:57.141Z,19.35
2018-02-20T16:00:26.559Z,21.03
2018-02-20T16:02:52.437Z,20.10
2018-02-20T16:05:20.037Z,20.27
2018-02-20T16:07:45.873Z,19.45
2018-02-20T16:10:15.050Z,20.53
2018-02-20T16:12:40.926Z,19.52
2018-02-20T16:15:10.107Z,21.03
2018-02-20T16:17:36.022Z,20.23
2018-02-20T16:20:04.928Z,20.80
2018-02-20T16:22:30.805Z,20.85
2018-02-20T16:24:56.654Z,18.97
2018-02-20T16:27:22.505Z,22.73
2018-02-20T16:29:48.388Z,21.60
2018-02-20T16:32:15.709Z,20.90
2018-02-20T16:34:41.564Z,21.58
2018-02-20T16:37:10.397Z,22.47
2018-02-20T16:39:38.522Z,24.17
2018-02-20T16:42:04.947Z,22.30
2018-02-20T16:44:30.809Z,21.35
2018-02-20T16:46:59.901Z,23.13
2018-02-20T16:49:25.766Z,24.10
2018-02-20T16:51:55.070Z,23.67
2018-02-20T16:54:20.938Z,22.60
2018-02-20T16:56:50.026Z,24.40
2018-02-20T16:59:15.907Z,24.40
2018-02-20T17:01:41.872Z,22.80
2018-02-20T17:04:07.764Z,23.33
2018-02-20T17:06:33.624Z,23.73
2018-02-20T17:09:01.290Z,22.50
2018-02-20T17:11:27.193Z,23.23
2018-02-20T17:13:56.267Z,23.70
2018-02-20T17:16:22.109Z,23.62
2018-02-20T17:18:51.043Z,22.73
2018-02-20T17:21:16.945Z,23.85
2018-02-20T17:23:46.021Z,47.77
2018-02-20T17:26:11.872Z,24.83
2018-02-20T17:28:41.099Z,23.30
2018-02-20T17:31:06.950Z,22.00
2018-02-20T17:33:36.072Z,25.40
2018-02-20T17:36:01.942Z,30.12
2018-02-20T17:38:27.776Z,23.07
2018-02-20T17:40:53.686Z,22.30
2018-02-20T17:43:19.555Z,21.93
2018-02-20T17:45:46.663Z,24.50
2018-02-20T17:48:12.526Z,19.55
2018-02-20T17:50:41.836Z,20.97
2018-02-20T17:53:07.717Z,21.05
2018-02-20T17:55:36.696Z,20.37
2018-02-20T17:58:02.570Z,22.50
2018-02-20T18:00:31.927Z,21.40
2018-02-20T18:02:57.804Z,20.75
2018-02-20T18:05:25.185Z,22.00
2018-02-20T18:07:51.056Z,22.20
2018-02-20T18:10:20.201Z,24.23
2018-02-20T18:12:46.052Z,20.95
2018-02-20T18:15:12.054Z,21.37
2018-02-20T18:17:37.907Z,21.77
2018-02-20T18:20:03.788Z,22.90
2018-02-20T18:22:31.441Z,24.00
2018-02-20T18:24:57.296Z,21.60
2018-02-20T18:27:26.639Z,22.17
2018-02-20T18:29:52.525Z,23.17
2018-02-20T18:32:22.047Z,20.87
2018-02-20T18:34:47.899Z,22.13
2018-02-20T18:37:16.951Z,21.20
2018-02-20T18:39:42.791Z,21.02
2018-02-20T18:42:11.905Z,19.37
2018-02-20T18:44:37.724Z,22.37
2018-02-20T18:47:06.910Z,22.63
2018-02-20T18:49:32.779Z,21.73
2018-02-20T18:51:58.633Z,29.87
2018-02-20T18:54:24.487Z,26.73
2018-02-20T18:56:50.326Z,20.97
2018-02-20T18:59:17.485Z,20.30
2018-02-20T19:01:43.406Z,20.60
2018-02-20T19:04:12.400Z,24.03
2018-02-20T19:06:38.276Z,24.23
2018-02-20T19:09:07.417Z,25.93
2018-02-20T19:11:33.265Z,22.23
2018-02-20T19:14:02.218Z,23.57
2018-02-20T19:16:28.072Z,24.30
2018-02-20T19:18:57.461Z,24.73
2018-02-20T19:21:23.317Z,25.25
2018-02-20T19:23:50.536Z,23.50
2018-02-20T19:26:16.361Z,24.02
2018-02-20T19:28:42.259Z,25.40
2018-02-20T19:31:08.125Z,23.23
2018-02-20T19:33:33.986Z,24.60
2018-02-20T19:36:03.129Z,23.47
2018-02-20T19:38:28.967Z,24.33
2018-02-20T19:40:58.203Z,27.70
2018-02-20T19:43:24.024Z,25.62
2018-02-20T19:45:53.150Z,25.47
2018-02-20T19:48:19.017Z,24.67
2018-02-20T19:50:47.974Z,24.23
2018-02-20T19:53:13.818Z,23.95
2018-02-20T19:55:40.911Z,25.23
2018-02-20T19:58:06.761Z,26.45
2018-02-20T20:03:03.532Z,26.50
2018-02-20T20:05:29.380Z,26.17
2018-02-20T20:07:55.240Z,24.60
2018-02-20T20:10:21.114Z,29.77
2018-02-20T20:12:47.650Z,26.50
2018-02-20T20:15:13.522Z,28.83
2018-02-20T20:17:42.738Z,25.97
2018-02-20T20:20:08.594Z,25.65
2018-02-20T20:22:37.865Z,24.30
2018-02-20T20:25:03.753Z,23.58
2018-02-20T20:27:32.765Z,25.23
2018-02-20T20:29:58.609Z,25.50
2018-02-20T20:32:27.924Z,25.13
2018-02-20T20:34:53.752Z,25.67
2018-02-20T20:37:21.233Z,25.90
2018-02-20T20:39:47.087Z,25.60
2018-02-20T20:42:12.938Z,27.70
2018-02-20T20:44:38.795Z,26.30
2018-02-20T20:47:04.640Z,24.10
2018-02-20T20:49:33.990Z,26.33
2018-02-20T20:51:59.850Z,26.70
2018-02-20T20:54:28.942Z,25.47
2018-02-20T20:56:54.837Z,27.83
2018-02-20T20:59:23.708Z,25.40
2018-02-20T21:01:49.579Z,26.33
2018-02-20T21:04:18.742Z,24.70
2018-02-20T21:06:44.615Z,26.67
2018-02-20T21:09:11.713Z,27.07
2018-02-20T21:11:37.587Z,28.25
2018-02-20T21:14:07.294Z,27.63
2018-02-20T21:16:33.151Z,29.25
2018-02-20T21:18:59.050Z,26.70
2018-02-20T21:21:24.915Z,28.33
2018-02-20T21:23:50.775Z,30.77
2018-02-20T21:26:19.665Z,26.57
2018-02-20T21:28:45.542Z,28.30
2018-02-20T21:31:14.569Z,29.03
2018-02-20T21:33:40.421Z,29.67
2018-02-20T21:36:07.707Z,26.73
2018-02-20T21:38:33.533Z,27.90
2018-02-20T21:41:02.338Z,26.67
2018-02-20T21:43:28.192Z,29.42
2018-02-20T21:45:57.043Z,30.90
2018-02-20T21:48:22.903Z,28.27
2018-02-20T21:53:19.486Z,27.50
2018-02-20T21:55:45.334Z,28.77
2018-02-20T21:58:11.320Z,29.47
2018-02-20T22:00:37.179Z,27.02
2018-02-20T22:03:04.251Z,26.87
2018-02-20T22:05:30.102Z,29.55
2018-02-20T22:07:59.125Z,29.93
2018-02-20T22:10:24.977Z,26.45
2018-02-20T22:12:54.143Z,28.67
2018-02-20T22:15:20.030Z,30.67
2018-02-20T22:17:47.809Z,28.97
2018-02-20T22:20:13.688Z,30.50
2018-02-20T22:22:43.539Z,27.17
2018-02-20T22:25:09.407Z,27.37
2018-02-20T22:27:38.807Z,31.37
2018-02-20T22:30:04.685Z,26.73
2018-02-20T22:32:30.541Z,29.10
2018-02-20T22:34:56.391Z,30.17
2018-02-20T22:37:22.250Z,28.10
2018-02-20T22:39:49.686Z,31.20
2018-02-20T22:42:15.525Z,28.92
2018-02-20T22:44:44.785Z,28.00
2018-02-20T22:47:10.641Z,28.85
2018-02-20T22:49:40.112Z,29.23
2018-02-20T22:52:05.959Z,28.52
2018-02-20T22:54:33.458Z,31.13
2018-02-20T22:56:59.316Z,28.98
2018-02-20T22:59:29.598Z,28.83
2018-02-20T23:01:55.477Z,31.90
2018-02-20T23:04:22.404Z,29.40
2018-02-20T23:06:48.301Z,29.50
2018-02-20T23:09:14.161Z,28.90
2018-02-20T23:11:46.090Z,31.90
2018-02-20T23:14:11.934Z,27.23
2018-02-20T23:16:37.776Z,30.70
2018-02-20T23:19:03.637Z,29.40
2018-02-20T23:21:29.476Z,28.97
2018-02-20T23:23:55.343Z,27.40
2018-02-20T23:26:24.173Z,28.70
2018-02-20T23:28:50.145Z,30.60
2018-02-20T23:31:19.147Z,30.10
2018-02-20T23:33:45.000Z,28.15
2018-02-20T23:36:14.279Z,26.57
2018-02-20T23:38:40.172Z,28.80
2018-02-20T23:41:09.321Z,28.97
2018-02-20T23:43:35.128Z,28.20
2018-02-20T23:46:00.956Z,28.50
2018-02-20T23:48:28.288Z,27.70
2018-02-20T23:51:00.368Z,28.87
2018-02-20T23:53:26.223Z,27.73
2018-02-20T23:55:52.108Z,26.27
2018-02-20T23:58:17.946Z,26.57
